sensor_id;sensor_type;location;lat;lon;timestamp;P1;durP1;ratioP1;P2;durP2;ratioP2
20110;SDS011;10216;42.658;23.248;2024-02-23T00:00:57;1.70;;;1.17;;
20110;SDS011;10216;42.658;23.248;2024-02-23T00:03:22;4.23;;;1.33;;
20110;SDS011;10216;42.658;23.248;2024-02-23T00:05:48;3.67;;;1.87;;
20110;SDS011;10216;42.658;23.248;2024-02-23T00:08:13;1.90;;;1.80;;
20110;SDS011;10216;42.658;23.248;2024-02-23T00:10:39;1.60;;;1.50;;
20110;SDS011;10216;42.658;23.248;2024-02-23T00:13:04;1.97;;;1.47;;
20110;SDS011;10216;42.658;23.248;2024-02-23T00:15:29;1.13;;;1.07;;
20110;SDS011;10216;42.658;23.248;2024-02-23T00:17:55;1.23;;;1.13;;
20110;SDS011;10216;42.658;23.248;2024-02-23T00:20:20;2.27;;;1.90;;
20110;SDS011;10216;42.658;23.248;2024-02-23T00:22:46;2.10;;;1.90;;
20110;SDS011;10216;42.658;23.248;2024-02-23T00:25:11;1.07;;;0.97;;
20110;SDS011;10216;42.658;23.248;2024-02-23T00:27:36;4.67;;;2.23;;
20110;SDS011;10216;42.658;23.248;2024-02-23T00:30:03;2.20;;;1.17;;
20110;SDS011;10216;42.658;23.248;2024-02-23T00:32:28;1.97;;;1.73;;
20110;SDS011;10216;42.658;23.248;2024-02-23T00:34:53;1.30;;;1.07;;
20110;SDS011;10216;42.658;23.248;2024-02-23T00:37:19;1.00;;;1.00;;
20110;SDS011;10216;42.658;23.248;2024-02-23T00:39:44;0.93;;;0.93;;
20110;SDS011;10216;42.658;23.248;2024-02-23T00:42:09;1.40;;;1.30;;
20110;SDS011;10216;42.658;23.248;2024-02-23T00:44:34;1.27;;;1.17;;
20110;SDS011;10216;42.658;23.248;2024-02-23T00:47:00;1.23;;;1.10;;
20110;SDS011;10216;42.658;23.248;2024-02-23T00:49:27;2.87;;;1.30;;
20110;SDS011;10216;42.658;23.248;2024-02-23T00:51:53;2.03;;;1.93;;
20110;SDS011;10216;42.658;23.248;2024-02-23T00:54:18;1.67;;;1.57;;
20110;SDS011;10216;42.658;23.248;2024-02-23T00:56:43;0.93;;;0.93;;
20110;SDS011;10216;42.658;23.248;2024-02-23T00:59:10;1.93;;;1.80;;
20110;SDS011;10216;42.658;23.248;2024-02-23T01:01:35;1.07;;;1.03;;
20110;SDS011;10216;42.658;23.248;2024-02-23T01:04:00;2.57;;;2.03;;
20110;SDS011;10216;42.658;23.248;2024-02-23T01:06:26;0.93;;;0.93;;
20110;SDS011;10216;42.658;23.248;2024-02-23T01:08:53;1.60;;;1.13;;
20110;SDS011;10216;42.658;23.248;2024-02-23T01:11:18;2.70;;;1.33;;
20110;SDS011;10216;42.658;23.248;2024-02-23T01:13:44;1.23;;;1.13;;
20110;SDS011;10216;42.658;23.248;2024-02-23T01:16:09;2.90;;;1.27;;
20110;SDS011;10216;42.658;23.248;2024-02-23T01:18:34;1.20;;;1.10;;
20110;SDS011;10216;42.658;23.248;2024-02-23T01:21:00;0.93;;;0.93;;
20110;SDS011;10216;42.658;23.248;2024-02-23T01:23:25;3.10;;;2.30;;
20110;SDS011;10216;42.658;23.248;2024-02-23T01:25:50;1.43;;;1.33;;
20110;SDS011;10216;42.658;23.248;2024-02-23T01:28:16;1.80;;;1.70;;
20110;SDS011;10216;42.658;23.248;2024-02-23T01:30:41;1.83;;;1.60;;
20110;SDS011;10216;42.658;23.248;2024-02-23T01:33:06;2.97;;;1.30;;
20110;SDS011;10216;42.658;23.248;2024-02-23T01:35:31;1.83;;;1.73;;
20110;SDS011;10216;42.658;23.248;2024-02-23T01:37:57;2.17;;;1.67;;
20110;SDS011;10216;42.658;23.248;2024-02-23T01:40:22;1.17;;;1.17;;
20110;SDS011;10216;42.658;23.248;2024-02-23T01:42:47;1.80;;;1.70;;
20110;SDS011;10216;42.658;23.248;2024-02-23T01:45:13;0.47;;;0.47;;
20110;SDS011;10216;42.658;23.248;2024-02-23T01:47:38;1.13;;;1.13;;
20110;SDS011;10216;42.658;23.248;2024-02-23T01:50:04;2.67;;;1.17;;
20110;SDS011;10216;42.658;23.248;2024-02-23T01:52:30;2.30;;;1.13;;
20110;SDS011;10216;42.658;23.248;2024-02-23T01:54:55;1.67;;;1.57;;
20110;SDS011;10216;42.658;23.248;2024-02-23T01:57:21;1.43;;;0.87;;
20110;SDS011;10216;42.658;23.248;2024-02-23T01:59:47;2.03;;;0.90;;
20110;SDS011;10216;42.658;23.248;2024-02-23T02:02:12;1.13;;;0.83;;
20110;SDS011;10216;42.658;23.248;2024-02-23T02:04:38;1.33;;;1.17;;
20110;SDS011;10216;42.658;23.248;2024-02-23T02:07:03;2.27;;;1.87;;
20110;SDS011;10216;42.658;23.248;2024-02-23T02:09:29;1.50;;;1.40;;
20110;SDS011;10216;42.658;23.248;2024-02-23T02:11:54;3.27;;;2.07;;
20110;SDS011;10216;42.658;23.248;2024-02-23T02:14:20;2.70;;;1.90;;
20110;SDS011;10216;42.658;23.248;2024-02-23T02:16:45;4.60;;;2.00;;
20110;SDS011;10216;42.658;23.248;2024-02-23T02:19:11;1.30;;;1.20;;
20110;SDS011;10216;42.658;23.248;2024-02-23T02:21:36;1.57;;;0.87;;
20110;SDS011;10216;42.658;23.248;2024-02-23T02:24:02;0.73;;;0.73;;
20110;SDS011;10216;42.658;23.248;2024-02-23T02:26:28;0.83;;;0.83;;
20110;SDS011;10216;42.658;23.248;2024-02-23T02:28:53;0.80;;;0.80;;
20110;SDS011;10216;42.658;23.248;2024-02-23T02:31:18;1.13;;;1.10;;
20110;SDS011;10216;42.658;23.248;2024-02-23T02:33:44;0.57;;;0.50;;
20110;SDS011;10216;42.658;23.248;2024-02-23T02:36:09;1.60;;;1.53;;
20110;SDS011;10216;42.658;23.248;2024-02-23T02:38:34;1.70;;;0.93;;
20110;SDS011;10216;42.658;23.248;2024-02-23T02:41:00;0.60;;;0.60;;
20110;SDS011;10216;42.658;23.248;2024-02-23T02:43:28;0.50;;;0.50;;
20110;SDS011;10216;42.658;23.248;2024-02-23T02:45:53;1.23;;;1.20;;
20110;SDS011;10216;42.658;23.248;2024-02-23T02:48:18;1.07;;;1.07;;
20110;SDS011;10216;42.658;23.248;2024-02-23T02:50:44;1.63;;;1.53;;
20110;SDS011;10216;42.658;23.248;2024-02-23T02:53:09;2.43;;;1.50;;
20110;SDS011;10216;42.658;23.248;2024-02-23T02:55:35;1.20;;;1.10;;
20110;SDS011;10216;42.658;23.248;2024-02-23T02:58:00;0.80;;;0.80;;
20110;SDS011;10216;42.658;23.248;2024-02-23T03:00:26;1.33;;;1.23;;
20110;SDS011;10216;42.658;23.248;2024-02-23T03:02:52;1.10;;;1.10;;
20110;SDS011;10216;42.658;23.248;2024-02-23T03:05:17;1.20;;;1.20;;
20110;SDS011;10216;42.658;23.248;2024-02-23T03:07:42;1.67;;;1.57;;
20110;SDS011;10216;42.658;23.248;2024-02-23T03:10:07;1.00;;;0.97;;
20110;SDS011;10216;42.658;23.248;2024-02-23T03:12:33;1.30;;;1.20;;
20110;SDS011;10216;42.658;23.248;2024-02-23T03:14:58;1.73;;;1.63;;
20110;SDS011;10216;42.658;23.248;2024-02-23T03:17:23;1.23;;;1.13;;
20110;SDS011;10216;42.658;23.248;2024-02-23T03:19:49;1.23;;;1.13;;
20110;SDS011;10216;42.658;23.248;2024-02-23T03:22:15;2.43;;;1.37;;
20110;SDS011;10216;42.658;23.248;2024-02-23T03:24:40;2.97;;;2.47;;
20110;SDS011;10216;42.658;23.248;2024-02-23T03:27:06;1.53;;;1.43;;
20110;SDS011;10216;42.658;23.248;2024-02-23T03:29:31;2.07;;;1.87;;
20110;SDS011;10216;42.658;23.248;2024-02-23T03:31:57;1.63;;;1.53;;
20110;SDS011;10216;42.658;23.248;2024-02-23T03:34:22;1.13;;;1.10;;
20110;SDS011;10216;42.658;23.248;2024-02-23T03:36:47;2.13;;;1.53;;
20110;SDS011;10216;42.658;23.248;2024-02-23T03:39:13;0.80;;;0.80;;
20110;SDS011;10216;42.658;23.248;2024-02-23T03:41:38;1.73;;;1.40;;
20110;SDS011;10216;42.658;23.248;2024-02-23T03:44:03;0.80;;;0.80;;
20110;SDS011;10216;42.658;23.248;2024-02-23T03:46:29;0.97;;;0.97;;
20110;SDS011;10216;42.658;23.248;2024-02-23T03:48:54;0.97;;;0.97;;
20110;SDS011;10216;42.658;23.248;2024-02-23T03:51:19;1.63;;;1.53;;
20110;SDS011;10216;42.658;23.248;2024-02-23T03:53:45;1.67;;;1.53;;
20110;SDS011;10216;42.658;23.248;2024-02-23T03:56:10;1.53;;;1.23;;
20110;SDS011;10216;42.658;23.248;2024-02-23T03:58:35;1.63;;;1.53;;
20110;SDS011;10216;42.658;23.248;2024-02-23T04:01:00;3.63;;;2.60;;
20110;SDS011;10216;42.658;23.248;2024-02-23T04:03:26;0.90;;;0.90;;
20110;SDS011;10216;42.658;23.248;2024-02-23T04:05:51;0.93;;;0.93;;
20110;SDS011;10216;42.658;23.248;2024-02-23T04:08:16;3.03;;;2.70;;
20110;SDS011;10216;42.658;23.248;2024-02-23T04:10:42;1.20;;;1.13;;
20110;SDS011;10216;42.658;23.248;2024-02-23T04:13:07;0.90;;;0.90;;
20110;SDS011;10216;42.658;23.248;2024-02-23T04:15:32;1.13;;;1.13;;
20110;SDS011;10216;42.658;23.248;2024-02-23T04:17:57;2.13;;;1.50;;
20110;SDS011;10216;42.658;23.248;2024-02-23T04:20:23;1.30;;;1.27;;
20110;SDS011;10216;42.658;23.248;2024-02-23T04:22:48;1.23;;;1.17;;
20110;SDS011;10216;42.658;23.248;2024-02-23T04:25:13;2.43;;;1.57;;
20110;SDS011;10216;42.658;23.248;2024-02-23T04:27:39;1.90;;;1.77;;
20110;SDS011;10216;42.658;23.248;2024-02-23T04:30:04;0.83;;;0.83;;
20110;SDS011;10216;42.658;23.248;2024-02-23T04:32:30;1.73;;;1.63;;
20110;SDS011;10216;42.658;23.248;2024-02-23T04:34:55;0.77;;;0.77;;
20110;SDS011;10216;42.658;23.248;2024-02-23T04:37:21;0.97;;;0.97;;
20110;SDS011;10216;42.658;23.248;2024-02-23T04:39:46;1.47;;;1.40;;
20110;SDS011;10216;42.658;23.248;2024-02-23T04:42:11;1.43;;;1.33;;
20110;SDS011;10216;42.658;23.248;2024-02-23T04:44:37;1.80;;;1.57;;
20110;SDS011;10216;42.658;23.248;2024-02-23T04:47:02;0.73;;;0.73;;
20110;SDS011;10216;42.658;23.248;2024-02-23T04:49:27;2.83;;;0.80;;
20110;SDS011;10216;42.658;23.248;2024-02-23T04:51:53;1.53;;;1.43;;
20110;SDS011;10216;42.658;23.248;2024-02-23T04:54:19;6.20;;;1.07;;
20110;SDS011;10216;42.658;23.248;2024-02-23T04:56:44;1.93;;;1.83;;
20110;SDS011;10216;42.658;23.248;2024-02-23T04:59:09;1.53;;;1.43;;
20110;SDS011;10216;42.658;23.248;2024-02-23T05:01:35;4.10;;;2.07;;
20110;SDS011;10216;42.658;23.248;2024-02-23T05:04:02;2.57;;;1.47;;
20110;SDS011;10216;42.658;23.248;2024-02-23T05:06:28;2.27;;;1.23;;
20110;SDS011;10216;42.658;23.248;2024-02-23T05:08:53;1.93;;;1.10;;
20110;SDS011;10216;42.658;23.248;2024-02-23T05:11:18;0.97;;;0.97;;
20110;SDS011;10216;42.658;23.248;2024-02-23T05:13:44;1.77;;;1.67;;
20110;SDS011;10216;42.658;23.248;2024-02-23T05:16:09;1.47;;;1.37;;
20110;SDS011;10216;42.658;23.248;2024-02-23T05:18:35;3.20;;;1.20;;
20110;SDS011;10216;42.658;23.248;2024-02-23T05:21:00;2.03;;;1.83;;
20110;SDS011;10216;42.658;23.248;2024-02-23T05:23:25;0.77;;;0.77;;
20110;SDS011;10216;42.658;23.248;2024-02-23T05:25:51;2.23;;;1.13;;
20110;SDS011;10216;42.658;23.248;2024-02-23T05:28:16;1.43;;;1.33;;
20110;SDS011;10216;42.658;23.248;2024-02-23T05:30:41;0.90;;;0.90;;
20110;SDS011;10216;42.658;23.248;2024-02-23T05:33:07;1.53;;;1.47;;
20110;SDS011;10216;42.658;23.248;2024-02-23T05:35:33;0.93;;;0.93;;
20110;SDS011;10216;42.658;23.248;2024-02-23T05:37:58;1.53;;;1.43;;
20110;SDS011;10216;42.658;23.248;2024-02-23T05:40:24;0.63;;;0.63;;
20110;SDS011;10216;42.658;23.248;2024-02-23T05:42:49;1.50;;;1.40;;
20110;SDS011;10216;42.658;23.248;2024-02-23T05:45:14;2.27;;;1.27;;
20110;SDS011;10216;42.658;23.248;2024-02-23T05:47:40;1.50;;;1.40;;
20110;SDS011;10216;42.658;23.248;2024-02-23T05:50:07;1.10;;;1.10;;
20110;SDS011;10216;42.658;23.248;2024-02-23T05:52:33;1.87;;;1.53;;
20110;SDS011;10216;42.658;23.248;2024-02-23T05:54:58;1.37;;;1.27;;
20110;SDS011;10216;42.658;23.248;2024-02-23T05:57:25;2.03;;;1.23;;
20110;SDS011;10216;42.658;23.248;2024-02-23T05:59:50;1.93;;;1.83;;
20110;SDS011;10216;42.658;23.248;2024-02-23T06:02:16;1.60;;;1.50;;
20110;SDS011;10216;42.658;23.248;2024-02-23T06:04:41;2.80;;;1.27;;
20110;SDS011;10216;42.658;23.248;2024-02-23T06:07:07;2.50;;;2.30;;
20110;SDS011;10216;42.658;23.248;2024-02-23T06:09:32;0.77;;;0.77;;
20110;SDS011;10216;42.658;23.248;2024-02-23T06:11:57;3.10;;;1.07;;
20110;SDS011;10216;42.658;23.248;2024-02-23T06:14:23;1.00;;;1.00;;
20110;SDS011;10216;42.658;23.248;2024-02-23T06:16:48;0.97;;;0.97;;
20110;SDS011;10216;42.658;23.248;2024-02-23T06:19:14;1.67;;;1.57;;
20110;SDS011;10216;42.658;23.248;2024-02-23T06:21:39;2.20;;;2.00;;
20110;SDS011;10216;42.658;23.248;2024-02-23T06:24:05;2.20;;;2.07;;
20110;SDS011;10216;42.658;23.248;2024-02-23T06:26:30;3.60;;;2.73;;
20110;SDS011;10216;42.658;23.248;2024-02-23T06:28:55;4.80;;;2.83;;
20110;SDS011;10216;42.658;23.248;2024-02-23T06:31:21;1.90;;;1.70;;
20110;SDS011;10216;42.658;23.248;2024-02-23T06:33:46;2.70;;;2.50;;
20110;SDS011;10216;42.658;23.248;2024-02-23T06:36:14;5.57;;;2.23;;
20110;SDS011;10216;42.658;23.248;2024-02-23T06:38:39;2.47;;;2.27;;
20110;SDS011;10216;42.658;23.248;2024-02-23T06:41:04;1.80;;;1.23;;
20110;SDS011;10216;42.658;23.248;2024-02-23T06:43:30;2.23;;;1.57;;
20110;SDS011;10216;42.658;23.248;2024-02-23T06:45:56;1.87;;;1.77;;
20110;SDS011;10216;42.658;23.248;2024-02-23T06:48:21;2.70;;;2.30;;
20110;SDS011;10216;42.658;23.248;2024-02-23T06:50:46;2.37;;;2.17;;
20110;SDS011;10216;42.658;23.248;2024-02-23T06:53:12;3.13;;;2.00;;
20110;SDS011;10216;42.658;23.248;2024-02-23T06:55:37;2.73;;;2.53;;
20110;SDS011;10216;42.658;23.248;2024-02-23T06:58:02;1.70;;;1.37;;
20110;SDS011;10216;42.658;23.248;2024-02-23T07:00:30;5.20;;;2.63;;
20110;SDS011;10216;42.658;23.248;2024-02-23T07:02:55;2.53;;;1.70;;
20110;SDS011;10216;42.658;23.248;2024-02-23T07:05:23;4.37;;;2.90;;
20110;SDS011;10216;42.658;23.248;2024-02-23T07:07:49;2.17;;;1.97;;
20110;SDS011;10216;42.658;23.248;2024-02-23T07:10:14;2.67;;;1.87;;
20110;SDS011;10216;42.658;23.248;2024-02-23T07:12:39;2.77;;;2.17;;
20110;SDS011;10216;42.658;23.248;2024-02-23T07:15:05;2.53;;;2.17;;
20110;SDS011;10216;42.658;23.248;2024-02-23T07:17:31;4.50;;;2.83;;
20110;SDS011;10216;42.658;23.248;2024-02-23T07:19:56;4.57;;;2.87;;
20110;SDS011;10216;42.658;23.248;2024-02-23T07:22:30;1.80;;;1.70;;
20110;SDS011;10216;42.658;23.248;2024-02-23T07:24:55;2.37;;;1.97;;
20110;SDS011;10216;42.658;23.248;2024-02-23T07:27:21;4.27;;;2.10;;
20110;SDS011;10216;42.658;23.248;2024-02-23T07:29:46;2.67;;;1.90;;
20110;SDS011;10216;42.658;23.248;2024-02-23T07:32:11;3.27;;;2.53;;
20110;SDS011;10216;42.658;23.248;2024-02-23T07:34:37;2.23;;;2.03;;
20110;SDS011;10216;42.658;23.248;2024-02-23T07:37:02;2.90;;;2.67;;
20110;SDS011;10216;42.658;23.248;2024-02-23T07:39:28;2.50;;;2.33;;
20110;SDS011;10216;42.658;23.248;2024-02-23T07:41:54;2.97;;;2.30;;
20110;SDS011;10216;42.658;23.248;2024-02-23T07:44:19;2.60;;;2.40;;
20110;SDS011;10216;42.658;23.248;2024-02-23T07:46:44;4.50;;;3.37;;
20110;SDS011;10216;42.658;23.248;2024-02-23T07:49:10;3.17;;;1.93;;
20110;SDS011;10216;42.658;23.248;2024-02-23T07:51:36;3.10;;;2.83;;
20110;SDS011;10216;42.658;23.248;2024-02-23T07:54:01;2.07;;;1.87;;
20110;SDS011;10216;42.658;23.248;2024-02-23T07:56:27;3.70;;;2.97;;
20110;SDS011;10216;42.658;23.248;2024-02-23T07:58:53;4.37;;;3.20;;
20110;SDS011;10216;42.658;23.248;2024-02-23T08:01:18;5.07;;;3.70;;
20110;SDS011;10216;42.658;23.248;2024-02-23T08:03:44;4.90;;;3.10;;
20110;SDS011;10216;42.658;23.248;2024-02-23T08:06:09;6.90;;;4.40;;
20110;SDS011;10216;42.658;23.248;2024-02-23T08:08:35;10.40;;;4.90;;
20110;SDS011;10216;42.658;23.248;2024-02-23T08:11:01;7.27;;;5.00;;
20110;SDS011;10216;42.658;23.248;2024-02-23T08:13:27;8.47;;;4.93;;
20110;SDS011;10216;42.658;23.248;2024-02-23T08:15:52;7.23;;;4.77;;
20110;SDS011;10216;42.658;23.248;2024-02-23T08:18:17;6.83;;;4.70;;
20110;SDS011;10216;42.658;23.248;2024-02-23T08:20:43;6.53;;;4.80;;
20110;SDS011;10216;42.658;23.248;2024-02-23T08:23:08;5.33;;;4.53;;
20110;SDS011;10216;42.658;23.248;2024-02-23T08:25:34;6.90;;;5.17;;
20110;SDS011;10216;42.658;23.248;2024-02-23T08:28:00;9.63;;;5.40;;
20110;SDS011;10216;42.658;23.248;2024-02-23T08:30:25;7.50;;;5.60;;
20110;SDS011;10216;42.658;23.248;2024-02-23T08:32:50;6.57;;;4.60;;
20110;SDS011;10216;42.658;23.248;2024-02-23T08:35:16;8.57;;;5.83;;
20110;SDS011;10216;42.658;23.248;2024-02-23T08:37:41;7.90;;;4.97;;
20110;SDS011;10216;42.658;23.248;2024-02-23T08:40:08;6.60;;;5.07;;
20110;SDS011;10216;42.658;23.248;2024-02-23T08:42:33;7.83;;;5.10;;
20110;SDS011;10216;42.658;23.248;2024-02-23T08:44:59;8.40;;;5.53;;
20110;SDS011;10216;42.658;23.248;2024-02-23T08:47:24;8.97;;;5.60;;
20110;SDS011;10216;42.658;23.248;2024-02-23T08:49:53;8.70;;;5.10;;
20110;SDS011;10216;42.658;23.248;2024-02-23T08:52:18;7.73;;;5.40;;
20110;SDS011;10216;42.658;23.248;2024-02-23T08:54:44;8.07;;;5.07;;
20110;SDS011;10216;42.658;23.248;2024-02-23T08:57:09;6.90;;;5.53;;
20110;SDS011;10216;42.658;23.248;2024-02-23T08:59:34;6.70;;;4.70;;
20110;SDS011;10216;42.658;23.248;2024-02-23T09:02:00;6.27;;;5.00;;
20110;SDS011;10216;42.658;23.248;2024-02-23T09:04:25;7.27;;;4.27;;
20110;SDS011;10216;42.658;23.248;2024-02-23T09:06:51;5.80;;;4.53;;
20110;SDS011;10216;42.658;23.248;2024-02-23T09:09:18;5.50;;;3.87;;
20110;SDS011;10216;42.658;23.248;2024-02-23T09:11:43;7.53;;;4.17;;
20110;SDS011;10216;42.658;23.248;2024-02-23T09:14:08;6.30;;;3.80;;
20110;SDS011;10216;42.658;23.248;2024-02-23T09:16:34;4.63;;;3.23;;
20110;SDS011;10216;42.658;23.248;2024-02-23T09:18:59;3.53;;;2.93;;
20110;SDS011;10216;42.658;23.248;2024-02-23T09:21:24;4.37;;;2.67;;
20110;SDS011;10216;42.658;23.248;2024-02-23T09:23:50;3.50;;;2.70;;
20110;SDS011;10216;42.658;23.248;2024-02-23T09:26:15;3.53;;;2.93;;
20110;SDS011;10216;42.658;23.248;2024-02-23T09:28:41;4.80;;;3.30;;
20110;SDS011;10216;42.658;23.248;2024-02-23T09:31:07;2.43;;;2.13;;
20110;SDS011;10216;42.658;23.248;2024-02-23T09:33:32;4.30;;;2.97;;
20110;SDS011;10216;42.658;23.248;2024-02-23T09:35:57;2.53;;;2.33;;
20110;SDS011;10216;42.658;23.248;2024-02-23T09:38:23;4.50;;;2.60;;
20110;SDS011;10216;42.658;23.248;2024-02-23T09:40:52;3.63;;;2.20;;
20110;SDS011;10216;42.658;23.248;2024-02-23T09:43:17;3.80;;;2.77;;
20110;SDS011;10216;42.658;23.248;2024-02-23T09:45:44;3.07;;;2.50;;
20110;SDS011;10216;42.658;23.248;2024-02-23T09:48:10;2.37;;;2.13;;
20110;SDS011;10216;42.658;23.248;2024-02-23T09:50:35;3.63;;;2.57;;
20110;SDS011;10216;42.658;23.248;2024-02-23T09:53:02;4.00;;;2.57;;
20110;SDS011;10216;42.658;23.248;2024-02-23T09:55:29;2.30;;;2.00;;
20110;SDS011;10216;42.658;23.248;2024-02-23T09:57:55;1.80;;;1.60;;
20110;SDS011;10216;42.658;23.248;2024-02-23T10:00:23;6.47;;;3.43;;
20110;SDS011;10216;42.658;23.248;2024-02-23T10:02:48;3.73;;;2.20;;
20110;SDS011;10216;42.658;23.248;2024-02-23T10:05:14;2.63;;;2.03;;
20110;SDS011;10216;42.658;23.248;2024-02-23T10:07:40;2.40;;;1.80;;
20110;SDS011;10216;42.658;23.248;2024-02-23T10:10:08;2.33;;;1.67;;
20110;SDS011;10216;42.658;23.248;2024-02-23T10:12:36;3.10;;;2.30;;
20110;SDS011;10216;42.658;23.248;2024-02-23T10:15:02;1.40;;;1.30;;
20110;SDS011;10216;42.658;23.248;2024-02-23T10:17:29;2.23;;;1.70;;
20110;SDS011;10216;42.658;23.248;2024-02-23T10:19:54;1.53;;;1.43;;
20110;SDS011;10216;42.658;23.248;2024-02-23T10:22:20;1.73;;;1.43;;
20110;SDS011;10216;42.658;23.248;2024-02-23T10:24:46;3.27;;;2.00;;
20110;SDS011;10216;42.658;23.248;2024-02-23T10:27:11;1.30;;;1.20;;
20110;SDS011;10216;42.658;23.248;2024-02-23T10:29:37;1.60;;;1.50;;
20110;SDS011;10216;42.658;23.248;2024-02-23T10:32:02;1.07;;;1.00;;
20110;SDS011;10216;42.658;23.248;2024-02-23T10:34:28;1.57;;;1.47;;
20110;SDS011;10216;42.658;23.248;2024-02-23T10:36:54;1.33;;;1.23;;
20110;SDS011;10216;42.658;23.248;2024-02-23T10:39:20;0.80;;;0.80;;
20110;SDS011;10216;42.658;23.248;2024-02-23T10:42:00;1.43;;;1.33;;
20110;SDS011;10216;42.658;23.248;2024-02-23T10:44:30;1.00;;;1.00;;
20110;SDS011;10216;42.658;23.248;2024-02-23T10:46:55;1.23;;;1.00;;
20110;SDS011;10216;42.658;23.248;2024-02-23T10:49:21;1.27;;;1.17;;
20110;SDS011;10216;42.658;23.248;2024-02-23T10:51:50;0.87;;;0.87;;
20110;SDS011;10216;42.658;23.248;2024-02-23T10:54:17;1.10;;;0.90;;
20110;SDS011;10216;42.658;23.248;2024-02-23T10:56:46;1.13;;;1.10;;
20110;SDS011;10216;42.658;23.248;2024-02-23T10:59:11;1.07;;;0.97;;
20110;SDS011;10216;42.658;23.248;2024-02-23T11:01:37;0.93;;;0.93;;
20110;SDS011;10216;42.658;23.248;2024-02-23T11:04:04;0.93;;;0.90;;
20110;SDS011;10216;42.658;23.248;2024-02-23T11:06:32;1.27;;;1.17;;
20110;SDS011;10216;42.658;23.248;2024-02-23T11:09:05;1.10;;;1.00;;
20110;SDS011;10216;42.658;23.248;2024-02-23T11:11:31;1.03;;;0.93;;
20110;SDS011;10216;42.658;23.248;2024-02-23T11:13:57;0.97;;;0.97;;
20110;SDS011;10216;42.658;23.248;2024-02-23T11:16:22;1.17;;;1.10;;
20110;SDS011;10216;42.658;23.248;2024-02-23T11:19:01;1.10;;;1.00;;
20110;SDS011;10216;42.658;23.248;2024-02-23T11:21:33;0.70;;;0.70;;
20110;SDS011;10216;42.658;23.248;2024-02-23T11:24:01;1.00;;;0.90;;
20110;SDS011;10216;42.658;23.248;2024-02-23T11:26:27;1.27;;;1.00;;
20110;SDS011;10216;42.658;23.248;2024-02-23T11:28:53;1.10;;;1.00;;
20110;SDS011;10216;42.658;23.248;2024-02-23T11:31:19;0.87;;;0.73;;
20110;SDS011;10216;42.658;23.248;2024-02-23T11:33:48;1.00;;;0.90;;
20110;SDS011;10216;42.658;23.248;2024-02-23T11:36:21;0.80;;;0.80;;
20110;SDS011;10216;42.658;23.248;2024-02-23T11:38:47;0.80;;;0.80;;
20110;SDS011;10216;42.658;23.248;2024-02-23T11:41:12;0.97;;;0.93;;
20110;SDS011;10216;42.658;23.248;2024-02-23T11:43:38;0.97;;;0.97;;
20110;SDS011;10216;42.658;23.248;2024-02-23T11:46:04;2.30;;;1.30;;
20110;SDS011;10216;42.658;23.248;2024-02-23T11:48:30;0.80;;;0.80;;
20110;SDS011;10216;42.658;23.248;2024-02-23T11:50:55;0.70;;;0.70;;
20110;SDS011;10216;42.658;23.248;2024-02-23T11:53:21;0.60;;;0.60;;
20110;SDS011;10216;42.658;23.248;2024-02-23T11:55:47;1.00;;;0.90;;
20110;SDS011;10216;42.658;23.248;2024-02-23T11:58:13;2.53;;;1.00;;
20110;SDS011;10216;42.658;23.248;2024-02-23T12:00:39;2.20;;;1.10;;
20110;SDS011;10216;42.658;23.248;2024-02-23T12:03:05;3.53;;;1.10;;
20110;SDS011;10216;42.658;23.248;2024-02-23T12:05:30;4.00;;;1.10;;
20110;SDS011;10216;42.658;23.248;2024-02-23T12:07:55;0.90;;;0.90;;
20110;SDS011;10216;42.658;23.248;2024-02-23T12:10:22;0.90;;;0.90;;
20110;SDS011;10216;42.658;23.248;2024-02-23T12:12:47;0.60;;;0.60;;
20110;SDS011;10216;42.658;23.248;2024-02-23T12:15:14;0.70;;;0.70;;
20110;SDS011;10216;42.658;23.248;2024-02-23T12:17:49;0.73;;;0.73;;
20110;SDS011;10216;42.658;23.248;2024-02-23T12:20:14;0.65;;;0.65;;
20110;SDS011;10216;42.658;23.248;2024-02-23T12:22:40;1.02;;;0.98;;
20110;SDS011;10216;42.658;23.248;2024-02-23T12:25:06;1.02;;;1.00;;
20110;SDS011;10216;42.658;23.248;2024-02-23T12:27:31;0.80;;;0.80;;
20110;SDS011;10216;42.658;23.248;2024-02-23T12:29:57;0.87;;;0.80;;
20110;SDS011;10216;42.658;23.248;2024-02-23T12:32:22;1.27;;;0.90;;
20110;SDS011;10216;42.658;23.248;2024-02-23T12:34:48;0.70;;;0.70;;
20110;SDS011;10216;42.658;23.248;2024-02-23T12:37:16;0.90;;;0.90;;
20110;SDS011;10216;42.658;23.248;2024-02-23T12:39:44;1.08;;;0.70;;
20110;SDS011;10216;42.658;23.248;2024-02-23T12:42:10;1.42;;;1.00;;
20110;SDS011;10216;42.658;23.248;2024-02-23T12:44:35;0.82;;;0.82;;
20110;SDS011;10216;42.658;23.248;2024-02-23T12:47:00;0.73;;;0.73;;
20110;SDS011;10216;42.658;23.248;2024-02-23T12:49:26;0.75;;;0.75;;
20110;SDS011;10216;42.658;23.248;2024-02-23T12:51:51;1.10;;;0.82;;
20110;SDS011;10216;42.658;23.248;2024-02-23T12:54:16;0.85;;;0.85;;
20110;SDS011;10216;42.658;23.248;2024-02-23T12:56:42;0.82;;;0.80;;
20110;SDS011;10216;42.658;23.248;2024-02-23T12:59:07;0.80;;;0.80;;
20110;SDS011;10216;42.658;23.248;2024-02-23T13:01:34;1.25;;;0.93;;
20110;SDS011;10216;42.658;23.248;2024-02-23T13:04:02;2.30;;;1.05;;
20110;SDS011;10216;42.658;23.248;2024-02-23T13:06:27;1.05;;;0.95;;
20110;SDS011;10216;42.658;23.248;2024-02-23T13:08:53;0.73;;;0.70;;
20110;SDS011;10216;42.658;23.248;2024-02-23T13:11:18;3.75;;;3.38;;
20110;SDS011;10216;42.658;23.248;2024-02-23T13:13:43;1.60;;;0.80;;
20110;SDS011;10216;42.658;23.248;2024-02-23T13:16:09;1.20;;;1.10;;
20110;SDS011;10216;42.658;23.248;2024-02-23T13:18:35;0.80;;;0.80;;
20110;SDS011;10216;42.658;23.248;2024-02-23T13:21:00;0.80;;;0.80;;
20110;SDS011;10216;42.658;23.248;2024-02-23T13:23:26;1.10;;;1.00;;
20110;SDS011;10216;42.658;23.248;2024-02-23T13:25:51;1.47;;;1.20;;
20110;SDS011;10216;42.658;23.248;2024-02-23T13:28:16;1.13;;;0.97;;
20110;SDS011;10216;42.658;23.248;2024-02-23T13:30:42;0.90;;;0.90;;
20110;SDS011;10216;42.658;23.248;2024-02-23T13:36:12;1.00;;;1.00;;
20110;SDS011;10216;42.658;23.248;2024-02-23T13:38:38;1.20;;;0.87;;
20110;SDS011;10216;42.658;23.248;2024-02-23T13:41:04;1.90;;;1.20;;
20110;SDS011;10216;42.658;23.248;2024-02-23T13:43:31;0.80;;;0.80;;
20110;SDS011;10216;42.658;23.248;2024-02-23T13:45:56;3.70;;;2.40;;
20110;SDS011;10216;42.658;23.248;2024-02-23T13:48:21;2.57;;;1.67;;
20110;SDS011;10216;42.658;23.248;2024-02-23T13:50:48;1.03;;;1.03;;
20110;SDS011;10216;42.658;23.248;2024-02-23T13:53:13;1.00;;;0.90;;
20110;SDS011;10216;42.658;23.248;2024-02-23T13:55:39;0.93;;;0.90;;
20110;SDS011;10216;42.658;23.248;2024-02-23T13:58:05;1.40;;;1.30;;
20110;SDS011;10216;42.658;23.248;2024-02-23T14:00:30;1.20;;;1.03;;
20110;SDS011;10216;42.658;23.248;2024-02-23T14:02:55;1.00;;;1.00;;
20110;SDS011;10216;42.658;23.248;2024-02-23T14:05:21;1.00;;;0.87;;
20110;SDS011;10216;42.658;23.248;2024-02-23T14:07:47;0.70;;;0.70;;
20110;SDS011;10216;42.658;23.248;2024-02-23T14:10:12;1.97;;;1.20;;
20110;SDS011;10216;42.658;23.248;2024-02-23T14:12:38;1.13;;;0.90;;
20110;SDS011;10216;42.658;23.248;2024-02-23T14:15:04;1.17;;;0.97;;
20110;SDS011;10216;42.658;23.248;2024-02-23T14:17:30;1.20;;;1.10;;
20110;SDS011;10216;42.658;23.248;2024-02-23T14:19:55;1.50;;;0.97;;
20110;SDS011;10216;42.658;23.248;2024-02-23T14:22:21;1.07;;;0.77;;
20110;SDS011;10216;42.658;23.248;2024-02-23T14:24:46;0.90;;;0.90;;
20110;SDS011;10216;42.658;23.248;2024-02-23T14:27:11;2.13;;;1.30;;